sensor_id;sensor_type;location;lat;lon;timestamp;pressure;altitude;pressure_sealevel;temperature;humidity
51123;BME280;37162;41.724;13.346;2023-08-06T00:00:50;95990.66;;;23.38;65.65
51123;BME280;37162;41.724;13.346;2023-08-06T00:03:15;95986.94;;;23.34;65.56
51123;BME280;37162;41.724;13.346;2023-08-06T00:05:42;95980.09;;;23.37;65.33
51123;BME280;37162;41.724;13.346;2023-08-06T00:08:10;95980.91;;;23.37;65.37
51123;BME280;37162;41.724;13.346;2023-08-06T00:10:36;95954.25;;;23.26;66.00
51123;BME280;37162;41.724;13.346;2023-08-06T00:13:01;95977.13;;;23.38;66.22
51123;BME280;37162;41.724;13.346;2023-08-06T00:15:27;95967.88;;;23.39;66.61
51123;BME280;37162;41.724;13.346;2023-08-06T00:17:52;95967.06;;;23.39;66.59
51123;BME280;37162;41.724;13.346;2023-08-06T00:20:18;95970.66;;;23.34;66.78
51123;BME280;37162;41.724;13.346;2023-08-06T00:22:43;95965.75;;;23.36;66.32
51123;BME280;37162;41.724;13.346;2023-08-06T00:25:08;95973.88;;;23.36;65.68
51123;BME280;37162;41.724;13.346;2023-08-06T00:27:34;95986.63;;;23.36;65.83
51123;BME280;37162;41.724;13.346;2023-08-06T00:29:59;95989.34;;;23.36;65.80
51123;BME280;37162;41.724;13.346;2023-08-06T00:32:25;95995.56;;;23.36;65.55
51123;BME280;37162;41.724;13.346;2023-08-06T00:34:50;96001.28;;;23.35;65.90
51123;BME280;37162;41.724;13.346;2023-08-06T00:37:16;95987.50;;;23.31;65.63
51123;BME280;37162;41.724;13.346;2023-08-06T00:39:42;95991.25;;;23.35;65.68
51123;BME280;37162;41.724;13.346;2023-08-06T00:42:08;95999.38;;;23.35;65.56
51123;BME280;37162;41.724;13.346;2023-08-06T00:44:34;95995.88;;;23.35;65.79
51123;BME280;37162;41.724;13.346;2023-08-06T00:47:00;95991.25;;;23.35;66.10
51123;BME280;37162;41.724;13.346;2023-08-06T00:49:26;95992.84;;;23.36;66.11
51123;BME280;37162;41.724;13.346;2023-08-06T00:51:51;95984.72;;;23.36;66.61
51123;BME280;37162;41.724;13.346;2023-08-06T00:54:17;95983.91;;;23.36;66.64
51123;BME280;37162;41.724;13.346;2023-08-06T00:56:42;95990.44;;;23.35;66.65
51123;BME280;37162;41.724;13.346;2023-08-06T00:59:09;95981.28;;;23.31;66.22
51123;BME280;37162;41.724;13.346;2023-08-06T01:01:35;95993.41;;;23.33;66.11
51123;BME280;37162;41.724;13.346;2023-08-06T01:04:01;95988.88;;;23.29;65.63
51123;BME280;37162;41.724;13.346;2023-08-06T01:07:43;95997.25;;;23.32;65.33
51123;BME280;37162;41.724;13.346;2023-08-06T01:15:18;95994.53;;;23.32;65.45
51123;BME280;37162;41.724;13.346;2023-08-06T01:17:45;95994.03;;;23.30;64.83
51123;BME280;37162;41.724;13.346;2023-08-06T01:20:11;95991.09;;;23.27;65.33
51123;BME280;37162;41.724;13.346;2023-08-06T01:22:36;96009.69;;;23.33;65.52
51123;BME280;37162;41.724;13.346;2023-08-06T01:25:02;95996.75;;;23.30;66.07
51123;BME280;37162;41.724;13.346;2023-08-06T01:27:36;96002.38;;;23.34;66.32
51123;BME280;37162;41.724;13.346;2023-08-06T01:30:15;96000.47;;;23.34;66.44
51123;BME280;37162;41.724;13.346;2023-08-06T01:32:46;95998.84;;;23.33;66.46
51123;BME280;37162;41.724;13.346;2023-08-06T01:35:16;95998.03;;;23.33;66.26
51123;BME280;37162;41.724;13.346;2023-08-06T01:37:43;95994.81;;;23.31;66.01
51123;BME280;37162;41.724;13.346;2023-08-06T01:40:12;95995.63;;;23.31;65.69
51123;BME280;37162;41.724;13.346;2023-08-06T01:42:38;95983.47;;;23.29;65.37
51123;BME280;37162;41.724;13.346;2023-08-06T01:45:05;95982.38;;;23.30;65.05
51123;BME280;37162;41.724;13.346;2023-08-06T01:47:31;95989.41;;;23.31;65.21
51123;BME280;37162;41.724;13.346;2023-08-06T01:49:56;95977.53;;;23.27;65.07
51123;BME280;37162;41.724;13.346;2023-08-06T01:52:22;95989.41;;;23.31;65.41
51123;BME280;37162;41.724;13.346;2023-08-06T01:54:47;95982.09;;;23.31;65.08
51123;BME280;37162;41.724;13.346;2023-08-06T01:57:12;95987.81;;;23.30;65.36
51123;BME280;37162;41.724;13.346;2023-08-06T01:59:38;95975.56;;;23.32;65.58
51123;BME280;37162;41.724;13.346;2023-08-06T02:02:04;95979.88;;;23.33;66.00
51123;BME280;37162;41.724;13.346;2023-08-06T02:04:29;95991.00;;;23.32;65.97
51123;BME280;37162;41.724;13.346;2023-08-06T02:06:54;95990.22;;;23.31;65.89
51123;BME280;37162;41.724;13.346;2023-08-06T02:09:20;95979.94;;;23.28;66.34
51123;BME280;37162;41.724;13.346;2023-08-06T02:16:45;95972.34;;;23.30;65.32
51123;BME280;37162;41.724;13.346;2023-08-06T02:19:11;95969.63;;;23.30;65.45
51123;BME280;37162;41.724;13.346;2023-08-06T02:21:36;95965.31;;;23.29;65.45
51123;BME280;37162;41.724;13.346;2023-08-06T02:24:02;95966.13;;;23.30;64.97
51123;BME280;37162;41.724;13.346;2023-08-06T02:26:27;95946.91;;;23.26;64.96
51123;BME280;37162;41.724;13.346;2023-08-06T02:28:53;95951.75;;;23.29;65.09
51123;BME280;37162;41.724;13.346;2023-08-06T02:31:18;95950.66;;;23.30;64.85
51123;BME280;37162;41.724;13.346;2023-08-06T02:33:44;95940.47;;;23.22;64.83
51123;BME280;37162;41.724;13.346;2023-08-06T02:36:09;95945.50;;;23.29;65.71
51123;BME280;37162;41.724;13.346;2023-08-06T02:38:35;95944.44;;;23.30;66.00
51123;BME280;37162;41.724;13.346;2023-08-06T02:41:03;95934.97;;;23.27;66.13
51123;BME280;37162;41.724;13.346;2023-08-06T02:43:29;95934.41;;;23.30;66.39
51123;BME280;37162;41.724;13.346;2023-08-06T02:45:58;95937.91;;;23.31;66.33
51123;BME280;37162;41.724;13.346;2023-08-06T02:48:24;95940.09;;;23.29;65.93
51123;BME280;37162;41.724;13.346;2023-08-06T02:50:49;95938.22;;;23.29;65.67
51123;BME280;37162;41.724;13.346;2023-08-06T02:53:14;95931.97;;;23.29;65.88
51123;BME280;37162;41.724;13.346;2023-08-06T02:55:45;95936.59;;;23.28;65.87
51123;BME280;37162;41.724;13.346;2023-08-06T02:58:13;95934.47;;;23.25;65.56
51123;BME280;37162;41.724;13.346;2023-08-06T03:00:38;95933.38;;;23.26;65.23
51123;BME280;37162;41.724;13.346;2023-08-06T03:03:04;95942.81;;;23.29;65.43
51123;BME280;37162;41.724;13.346;2023-08-06T03:05:29;95935.84;;;23.23;65.34
51123;BME280;37162;41.724;13.346;2023-08-06T03:07:54;95943.63;;;23.29;65.46
51123;BME280;37162;41.724;13.346;2023-08-06T03:10:20;95946.34;;;23.29;65.42
51123;BME280;37162;41.724;13.346;2023-08-06T03:12:45;95945.50;;;23.29;66.05
51123;BME280;37162;41.724;13.346;2023-08-06T03:15:11;95946.34;;;23.29;66.43
51123;BME280;37162;41.724;13.346;2023-08-06T03:17:36;95940.94;;;23.29;66.26
51123;BME280;37162;41.724;13.346;2023-08-06T03:20:02;95939.91;;;23.25;66.26
51123;BME280;37162;41.724;13.346;2023-08-06T03:22:27;95942.00;;;23.28;66.16
51123;BME280;37162;41.724;13.346;2023-08-06T03:24:53;95929.72;;;23.17;65.80
51123;BME280;37162;41.724;13.346;2023-08-06T03:27:18;95943.41;;;23.26;65.79
51123;BME280;37162;41.724;13.346;2023-08-06T03:29:44;95943.41;;;23.26;65.86
51123;BME280;37162;41.724;13.346;2023-08-06T03:32:09;95931.75;;;23.25;65.64
51123;BME280;37162;41.724;13.346;2023-08-06T03:34:34;95939.91;;;23.25;65.43
51123;BME280;37162;41.724;13.346;2023-08-06T03:37:00;95945.00;;;23.27;65.52
51123;BME280;37162;41.724;13.346;2023-08-06T03:39:25;95943.69;;;23.24;65.69
51123;BME280;37162;41.724;13.346;2023-08-06T03:41:51;95944.50;;;23.25;65.59
51123;BME280;37162;41.724;13.346;2023-08-06T03:44:16;95935.06;;;23.22;65.88
51123;BME280;37162;41.724;13.346;2023-08-06T03:46:42;95934.16;;;23.27;66.01
51123;BME280;37162;41.724;13.346;2023-08-06T03:49:07;95941.19;;;23.28;66.79
51123;BME280;37162;41.724;13.346;2023-08-06T03:51:32;95936.16;;;23.21;67.06
51123;BME280;37162;41.724;13.346;2023-08-06T03:53:58;95948.53;;;23.27;66.92
51123;BME280;37162;41.724;13.346;2023-08-06T03:56:23;95944.78;;;23.23;66.76
51123;BME280;37162;41.724;13.346;2023-08-06T03:58:49;95939.75;;;23.16;66.82
51123;BME280;37162;41.724;13.346;2023-08-06T04:01:15;95948.31;;;23.24;66.50
51123;BME280;37162;41.724;13.346;2023-08-06T04:03:40;95945.31;;;23.25;66.66
51123;BME280;37162;41.724;13.346;2023-08-06T04:06:05;95936.97;;;23.21;66.15
51123;BME280;37162;41.724;13.346;2023-08-06T04:08:31;95941.81;;;23.25;66.01
51123;BME280;37162;41.724;13.346;2023-08-06T04:10:57;95945.31;;;23.25;66.26
51123;BME280;37162;41.724;13.346;2023-08-06T04:13:22;95946.38;;;23.24;66.24
51123;BME280;37162;41.724;13.346;2023-08-06T04:15:48;95946.19;;;23.20;66.16
51123;BME280;37162;41.724;13.346;2023-08-06T04:18:13;95943.69;;;23.24;65.86
51123;BME280;37162;41.724;13.346;2023-08-06T04:20:43;95930.13;;;23.24;65.87
51123;BME280;37162;41.724;13.346;2023-08-06T04:23:10;95927.81;;;23.17;66.12
51123;BME280;37162;41.724;13.346;2023-08-06T04:25:35;95944.28;;;23.21;66.52
51123;BME280;37162;41.724;13.346;2023-08-06T04:28:01;95950.44;;;23.27;67.09
51123;BME280;37162;41.724;13.346;2023-08-06T04:30:26;95945.41;;;23.20;66.95
51123;BME280;37162;41.724;13.346;2023-08-06T04:32:52;95948.91;;;23.20;66.98
51123;BME280;37162;41.724;13.346;2023-08-06T04:35:17;95966.69;;;23.27;67.16
51123;BME280;37162;41.724;13.346;2023-08-06T04:37:42;95965.91;;;23.26;66.69
51123;BME280;37162;41.724;13.346;2023-08-06T04:40:08;95956.97;;;23.26;66.94
51123;BME280;37162;41.724;13.346;2023-08-06T04:42:34;95948.03;;;23.25;66.63
51123;BME280;37162;41.724;13.346;2023-08-06T04:45:01;95961.56;;;23.25;66.27
51123;BME280;37162;41.724;13.346;2023-08-06T04:47:26;95961.03;;;23.23;66.16
51123;BME280;37162;41.724;13.346;2023-08-06T04:49:52;95956.81;;;23.17;66.17
51123;BME280;37162;41.724;13.346;2023-08-06T04:52:18;95966.69;;;23.27;65.73
51123;BME280;37162;41.724;13.346;2023-08-06T04:54:43;95966.69;;;23.27;65.78
51123;BME280;37162;41.724;13.346;2023-08-06T04:57:09;95963.50;;;23.25;66.00
51123;BME280;37162;41.724;13.346;2023-08-06T04:59:35;95966.41;;;23.28;65.63
51123;BME280;37162;41.724;13.346;2023-08-06T05:02:01;95961.13;;;23.18;65.95
51123;BME280;37162;41.724;13.346;2023-08-06T05:04:27;95975.94;;;23.26;66.10
51123;BME280;37162;41.724;13.346;2023-08-06T05:06:52;95981.59;;;23.29;65.96
51123;BME280;37162;41.724;13.346;2023-08-06T05:09:18;95979.38;;;23.31;65.81
51123;BME280;37162;41.724;13.346;2023-08-06T05:11:43;95992.13;;;23.31;65.59
51123;BME280;37162;41.724;13.346;2023-08-06T05:14:09;95969.47;;;23.21;65.65
51123;BME280;37162;41.724;13.346;2023-08-06T05:16:34;95980.25;;;23.27;65.42
51123;BME280;37162;41.724;13.346;2023-08-06T05:18:59;95975.06;;;23.30;65.66
51123;BME280;37162;41.724;13.346;2023-08-06T05:21:25;95972.41;;;23.25;65.21
51123;BME280;37162;41.724;13.346;2023-08-06T05:23:50;95972.50;;;23.20;65.28
51123;BME280;37162;41.724;13.346;2023-08-06T05:26:16;95980.19;;;23.32;65.26
51123;BME280;37162;41.724;13.346;2023-08-06T05:28:44;95975.84;;;23.31;65.17
51123;BME280;37162;41.724;13.346;2023-08-06T05:31:09;95968.31;;;23.28;65.43
51123;BME280;37162;41.724;13.346;2023-08-06T05:33:35;95974.75;;;23.32;65.01
51123;BME280;37162;41.724;13.346;2023-08-06T05:36:00;95971.75;;;23.33;65.20
51123;BME280;37162;41.724;13.346;2023-08-06T05:38:26;95974.19;;;23.35;65.49
51123;BME280;37162;41.724;13.346;2023-08-06T05:40:52;95980.47;;;23.30;65.41
51123;BME280;37162;41.724;13.346;2023-08-06T05:43:17;95978.56;;;23.31;65.72
51123;BME280;37162;41.724;13.346;2023-08-06T05:45:46;95988.53;;;23.35;65.50
51123;BME280;37162;41.724;13.346;2023-08-06T05:48:12;95982.09;;;23.31;65.51
51123;BME280;37162;41.724;13.346;2023-08-06T05:50:37;95987.44;;;23.36;65.25
51123;BME280;37162;41.724;13.346;2023-08-06T05:53:03;95993.94;;;23.35;65.43
51123;BME280;37162;41.724;13.346;2023-08-06T05:55:28;95993.41;;;23.33;65.20
51123;BME280;37162;41.724;13.346;2023-08-06T05:57:54;95989.09;;;23.32;65.20
51123;BME280;37162;41.724;13.346;2023-08-06T06:00:21;95992.28;;;23.39;65.25
51123;BME280;37162;41.724;13.346;2023-08-06T06:02:46;95994.69;;;23.41;64.95
51123;BME280;37162;41.724;13.346;2023-08-06T06:05:11;95991.97;;;23.41;65.06
51123;BME280;37162;41.724;13.346;2023-08-06T06:07:37;95997.09;;;23.42;65.16
51123;BME280;37162;41.724;13.346;2023-08-06T06:10:02;95984.22;;;23.34;65.13
51123;BME280;37162;41.724;13.346;2023-08-06T06:12:28;96000.41;;;23.39;65.20
51123;BME280;37162;41.724;13.346;2023-08-06T06:14:53;96003.84;;;23.45;65.35
51123;BME280;37162;41.724;13.346;2023-08-06T06:17:19;96010.88;;;23.46;65.10
51123;BME280;37162;41.724;13.346;2023-08-06T06:19:44;96012.78;;;23.45;65.39
51123;BME280;37162;41.724;13.346;2023-08-06T06:22:10;96007.44;;;23.40;65.22
51123;BME280;37162;41.724;13.346;2023-08-06T06:24:35;96006.31;;;23.41;64.97
51123;BME280;37162;41.724;13.346;2023-08-06T06:27:01;96008.47;;;23.44;65.09
51123;BME280;37162;41.724;13.346;2023-08-06T06:29:26;96016.00;;;23.47;64.97
51123;BME280;37162;41.724;13.346;2023-08-06T06:31:51;96006.72;;;23.35;64.24
51123;BME280;37162;41.724;13.346;2023-08-06T06:34:17;96023.31;;;23.47;64.67
51123;BME280;37162;41.724;13.346;2023-08-06T06:36:42;96023.94;;;23.44;64.44
51123;BME280;37162;41.724;13.346;2023-08-06T06:39:08;96011.25;;;23.39;64.06
51123;BME280;37162;41.724;13.346;2023-08-06T06:41:33;96004.00;;;23.35;64.40
51123;BME280;37162;41.724;13.346;2023-08-06T06:43:59;96026.03;;;23.47;64.54
51123;BME280;37162;41.724;13.346;2023-08-06T06:46:24;96014.38;;;23.46;64.35
51123;BME280;37162;41.724;13.346;2023-08-06T06:48:50;96016.00;;;23.47;64.34
51123;BME280;37162;41.724;13.346;2023-08-06T06:51:15;96015.78;;;23.44;65.01
51123;BME280;37162;41.724;13.346;2023-08-06T06:53:40;96015.72;;;23.49;65.31
51123;BME280;37162;41.724;13.346;2023-08-06T06:56:06;96020.34;;;23.49;64.71
51123;BME280;37162;41.724;13.346;2023-08-06T06:58:32;96027.38;;;23.50;65.11
51123;BME280;37162;41.724;13.346;2023-08-06T07:00:58;96008.16;;;23.46;64.99
51123;BME280;37162;41.724;13.346;2023-08-06T07:03:23;96003.53;;;23.46;64.99
51123;BME280;37162;41.724;13.346;2023-08-06T07:05:49;96012.22;;;23.49;64.60
51123;BME280;37162;41.724;13.346;2023-08-06T07:08:15;96017.31;;;23.50;64.53
51123;BME280;37162;41.724;13.346;2023-08-06T07:10:41;96012.72;;;23.51;64.56
51123;BME280;37162;41.724;13.346;2023-08-06T07:13:07;96009.19;;;23.50;64.50
51123;BME280;37162;41.724;13.346;2023-08-06T07:15:33;95987.66;;;23.40;64.20
51123;BME280;37162;41.724;13.346;2023-08-06T07:17:58;95994.38;;;23.42;63.94
51123;BME280;37162;41.724;13.346;2023-08-06T07:20:24;95998.34;;;23.50;64.81
51123;BME280;37162;41.724;13.346;2023-08-06T07:22:50;96004.56;;;23.51;64.16
51123;BME280;37162;41.724;13.346;2023-08-06T07:25:16;95994.03;;;23.49;63.47
51123;BME280;37162;41.724;13.346;2023-08-06T07:27:42;95994.31;;;23.47;62.75
51123;BME280;37162;41.724;13.346;2023-08-06T07:30:08;95995.72;;;23.45;63.00
51123;BME280;37162;41.724;13.346;2023-08-06T07:32:33;95994.53;;;23.51;63.44
51123;BME280;37162;41.724;13.346;2023-08-06T07:34:59;95984.06;;;23.44;63.04
51123;BME280;37162;41.724;13.346;2023-08-06T07:37:29;95998.56;;;23.54;62.94
51123;BME280;37162;41.724;13.346;2023-08-06T07:39:55;95993.94;;;23.54;63.38
51123;BME280;37162;41.724;13.346;2023-08-06T07:42:21;96001.72;;;23.61;64.50
51123;BME280;37162;41.724;13.346;2023-08-06T07:44:57;95982.00;;;23.55;63.90
51123;BME280;37162;41.724;13.346;2023-08-06T07:47:23;95989.56;;;23.58;63.33
51123;BME280;37162;41.724;13.346;2023-08-06T07:49:49;95995.78;;;23.59;63.08
51123;BME280;37162;41.724;13.346;2023-08-06T07:52:14;95996.88;;;23.58;63.33
51123;BME280;37162;41.724;13.346;2023-08-06T07:54:40;96002.75;;;23.65;63.03
51123;BME280;37162;41.724;13.346;2023-08-06T07:57:05;96005.16;;;23.66;62.68
51123;BME280;37162;41.724;13.346;2023-08-06T07:59:31;96019.75;;;23.70;63.21
51123;BME280;37162;41.724;13.346;2023-08-06T08:01:57;95930.88;;;23.11;63.18
51123;BME280;37162;41.724;13.346;2023-08-06T08:04:23;95930.50;;;23.17;63.11
51123;BME280;37162;41.724;13.346;2023-08-06T08:06:49;96017.28;;;23.74;62.50
51123;BME280;37162;41.724;13.346;2023-08-06T08:09:14;96025.94;;;23.76;62.19
51123;BME280;37162;41.724;13.346;2023-08-06T08:11:40;96008.47;;;23.63;62.35
51123;BME280;37162;41.724;13.346;2023-08-06T08:14:06;96026.44;;;23.78;61.69
51123;BME280;37162;41.724;13.346;2023-08-06T08:16:31;96025.84;;;23.81;61.73
51123;BME280;37162;41.724;13.346;2023-08-06T08:18:57;96010.09;;;23.64;62.19
51123;BME280;37162;41.724;13.346;2023-08-06T08:21:22;96036.19;;;23.79;62.94
51123;BME280;37162;41.724;13.346;2023-08-06T08:23:49;95951.38;;;23.17;62.70
51123;BME280;37162;41.724;13.346;2023-08-06T08:26:15;96064.25;;;23.88;63.38
51123;BME280;37162;41.724;13.346;2023-08-06T08:28:40;96059.94;;;23.87;63.07
51123;BME280;37162;41.724;13.346;2023-08-06T08:31:10;96057.81;;;23.84;63.44
51123;BME280;37162;41.724;13.346;2023-08-06T08:36:11;96012.13;;;23.54;64.03
51123;BME280;37162;41.724;13.346;2023-08-06T08:38:37;96067.69;;;23.94;63.90
51123;BME280;37162;41.724;13.346;2023-08-06T08:41:02;95939.50;;;23.13;64.25
51123;BME280;37162;41.724;13.346;2023-08-06T08:43:29;96035.16;;;23.75;63.94
51123;BME280;37162;41.724;13.346;2023-08-06T08:45:54;96067.13;;;23.97;64.15
51123;BME280;37162;41.724;13.346;2023-08-06T08:48:24;96053.09;;;23.90;64.22
51123;BME280;37162;41.724;13.346;2023-08-06T08:50:52;96066.09;;;23.93;64.42
51123;BME280;37162;41.724;13.346;2023-08-06T08:53:18;96072.53;;;23.97;64.54
51123;BME280;37162;41.724;13.346;2023-08-06T08:55:49;96078.13;;;24.06;64.28
51123;BME280;37162;41.724;13.346;2023-08-06T08:58:15;96078.13;;;24.06;64.77
51123;BME280;37162;41.724;13.346;2023-08-06T09:00:47;95962.81;;;23.33;64.66
51123;BME280;37162;41.724;13.346;2023-08-06T09:03:13;95945.25;;;23.30;64.27
51123;BME280;37162;41.724;13.346;2023-08-06T09:05:44;96008.34;;;23.74;64.60
51123;BME280;37162;41.724;13.346;2023-08-06T09:08:11;96036.53;;;23.91;64.54
51123;BME280;37162;41.724;13.346;2023-08-06T09:10:39;96056.22;;;24.16;64.79
51123;BME280;37162;41.724;13.346;2023-08-06T09:13:06;96048.88;;;24.16;64.05
51123;BME280;37162;41.724;13.346;2023-08-06T09:15:32;96052.94;;;24.19;64.42
51123;BME280;37162;41.724;13.346;2023-08-06T09:17:58;96036.66;;;24.19;63.28
51123;BME280;37162;41.724;13.346;2023-08-06T09:20:24;96030.91;;;24.20;64.18
51123;BME280;37162;41.724;13.346;2023-08-06T09:22:52;95984.59;;;23.98;64.24
51123;BME280;37162;41.724;13.346;2023-08-06T09:25:24;96030.50;;;24.27;64.51
51123;BME280;37162;41.724;13.346;2023-08-06T09:27:51;96029.44;;;24.28;64.50
51123;BME280;37162;41.724;13.346;2023-08-06T09:30:34;96031.84;;;24.30;64.29
51123;BME280;37162;41.724;13.346;2023-08-06T09:33:00;95973.34;;;23.91;64.59
51123;BME280;37162;41.724;13.346;2023-08-06T09:35:28;96042.41;;;24.31;64.64
51123;BME280;37162;41.724;13.346;2023-08-06T09:37:54;96049.16;;;24.34;63.68
51123;BME280;37162;41.724;13.346;2023-08-06T09:40:30;96053.19;;;24.36;64.17
51123;BME280;37162;41.724;13.346;2023-08-06T09:42:56;96039.84;;;24.21;60.75
51123;BME280;37162;41.724;13.346;2023-08-06T09:45:22;96053.19;;;24.36;63.03
51123;BME280;37162;41.724;13.346;2023-08-06T09:47:55;96044.78;;;24.38;63.95
51123;BME280;37162;41.724;13.346;2023-08-06T09:50:21;96017.44;;;24.15;61.68
51123;BME280;37162;41.724;13.346;2023-08-06T09:52:47;95914.13;;;23.60;63.57
51123;BME280;37162;41.724;13.346;2023-08-06T09:57:49;96009.91;;;24.26;63.24
51123;BME280;37162;41.724;13.346;2023-08-06T10:00:15;95981.34;;;24.15;63.80
51123;BME280;37162;41.724;13.346;2023-08-06T10:02:42;95907.88;;;23.79;63.47
51123;BME280;37162;41.724;13.346;2023-08-06T10:05:08;95962.13;;;24.11;63.62
51123;BME280;37162;41.724;13.346;2023-08-06T10:12:49;95899.94;;;23.68;63.38
51123;BME280;37162;41.724;13.346;2023-08-06T10:15:24;96041.56;;;24.50;63.75
51123;BME280;37162;41.724;13.346;2023-08-06T10:17:51;96038.44;;;24.42;64.07
51123;BME280;37162;41.724;13.346;2023-08-06T10:20:20;95906.38;;;23.54;64.08
51123;BME280;37162;41.724;13.346;2023-08-06T10:23:00;95925.94;;;23.69;64.12
51123;BME280;37162;41.724;13.346;2023-08-06T10:25:26;95919.06;;;23.58;64.39
51123;BME280;37162;41.724;13.346;2023-08-06T10:30:30;96036.91;;;24.36;64.84
51123;BME280;37162;41.724;13.346;2023-08-06T10:32:58;96032.06;;;24.33;64.76
51123;BME280;37162;41.724;13.346;2023-08-06T10:35:29;96029.63;;;24.32;64.55
51123;BME280;37162;41.724;13.346;2023-08-06T10:37:58;96024.00;;;24.28;65.06
51123;BME280;37162;41.724;13.346;2023-08-06T10:40:23;96021.28;;;24.28;65.53
51123;BME280;37162;41.724;13.346;2023-08-06T10:42:49;96025.09;;;24.27;65.19
51123;BME280;37162;41.724;13.346;2023-08-06T10:45:16;96032.16;;;24.28;65.14
51123;BME280;37162;41.724;13.346;2023-08-06T10:47:43;96018.56;;;24.28;65.24
51123;BME280;37162;41.724;13.346;2023-08-06T10:50:12;96021.78;;;24.30;65.15
51123;BME280;37162;41.724;13.346;2023-08-06T10:52:38;96013.16;;;24.28;65.10
51123;BME280;37162;41.724;13.346;2023-08-06T10:55:04;96017.91;;;24.36;65.36
51123;BME280;37162;41.724;13.346;2023-08-06T10:57:30;96020.84;;;24.40;65.13
51123;BME280;37162;41.724;13.346;2023-08-06T10:59:55;96009.53;;;24.33;65.35
51123;BME280;37162;41.724;13.346;2023-08-06T11:02:21;96019.72;;;24.41;65.39
51123;BME280;37162;41.724;13.346;2023-08-06T11:04:48;96016.56;;;24.34;65.65
51123;BME280;37162;41.724;13.346;2023-08-06T11:07:13;96032.00;;;24.38;65.41
51123;BME280;37162;41.724;13.346;2023-08-06T11:09:39;96027.38;;;24.39;65.61
51123;BME280;37162;41.724;13.346;2023-08-06T11:12:11;96019.06;;;24.30;65.42
51123;BME280;37162;41.724;13.346;2023-08-06T11:14:36;96049.09;;;24.39;65.45
51123;BME280;37162;41.724;13.346;2023-08-06T11:17:02;96033.59;;;24.39;65.47
51123;BME280;37162;41.724;13.346;2023-08-06T11:19:27;96030.66;;;24.36;65.62
51123;BME280;37162;41.724;13.346;2023-08-06T11:21:54;96019.22;;;24.39;65.76
51123;BME280;37162;41.724;13.346;2023-08-06T11:24:20;96021.94;;;24.39;66.00
51123;BME280;37162;41.724;13.346;2023-08-06T11:26:45;96023.13;;;24.33;65.54
51123;BME280;37162;41.724;13.346;2023-08-06T11:29:11;96016.19;;;24.40;65.70
51123;BME280;37162;41.724;13.346;2023-08-06T11:31:36;96017.81;;;24.41;65.82
51123;BME280;37162;41.724;13.346;2023-08-06T11:34:02;96019.22;;;24.39;65.62
51123;BME280;37162;41.724;13.346;2023-08-06T11:36:31;96023.75;;;24.43;65.57
51123;BME280;37162;41.724;13.346;2023-08-06T11:39:00;96018.03;;;24.45;65.66
51123;BME280;37162;41.724;13.346;2023-08-06T11:41:28;96023.16;;;24.46;65.72
51123;BME280;37162;41.724;13.346;2023-08-06T11:43:54;96019.34;;;24.47;65.49
51123;BME280;37162;41.724;13.346;2023-08-06T11:46:20;96001.94;;;24.48;65.38
51123;BME280;37162;41.724;13.346;2023-08-06T11:48:55;95995.19;;;24.46;62.34
51123;BME280;37162;41.724;13.346;2023-08-06T11:51:25;96010.09;;;24.48;62.52
51123;BME280;37162;41.724;13.346;2023-08-06T11:53:57;96007.59;;;24.52;63.81
51123;BME280;37162;41.724;13.346;2023-08-06T11:56:23;96000.72;;;24.55;64.41
51123;BME280;37162;41.724;13.346;2023-08-06T11:58:49;96006.16;;;24.55;64.60
51123;BME280;37162;41.724;13.346;2023-08-06T12:01:15;95999.72;;;24.51;64.82
51123;BME280;37162;41.724;13.346;2023-08-06T12:03:40;96004.25;;;24.55;64.83
51123;BME280;37162;41.724;13.346;2023-08-06T12:06:06;96010.78;;;24.54;65.02
51123;BME280;37162;41.724;13.346;2023-08-06T12:08:34;96017.03;;;24.55;65.05
51123;BME280;37162;41.724;13.346;2023-08-06T12:11:09;96010.88;;;24.49;65.07
51123;BME280;37162;41.724;13.346;2023-08-06T12:14:05;96001.50;;;24.41;65.21
51123;BME280;37162;41.724;13.346;2023-08-06T12:16:50;95912.91;;;23.85;65.06
51123;BME280;37162;41.724;13.346;2023-08-06T12:19:44;95935.28;;;23.96;65.29
51123;BME280;37162;41.724;13.346;2023-08-06T12:22:19;96001.22;;;24.43;65.01
51123;BME280;37162;41.724;13.346;2023-08-06T12:24:46;96010.47;;;24.56;65.17
51123;BME280;37162;41.724;13.346;2023-08-06T12:27:12;95997.91;;;24.46;65.08
51123;BME280;37162;41.724;13.346;2023-08-06T12:32:35;95940.38;;;23.97;64.80
51123;BME280;37162;41.724;13.346;2023-08-06T12:35:14;96024.06;;;24.56;65.43
51123;BME280;37162;41.724;13.346;2023-08-06T12:37:40;96029.00;;;24.54;65.15
51123;BME280;37162;41.724;13.346;2023-08-06T12:40:06;96022.78;;;24.53;65.15
51123;BME280;37162;41.724;13.346;2023-08-06T12:42:31;96014.00;;;24.42;65.51
51123;BME280;37162;41.724;13.346;2023-08-06T12:44:56;96031.50;;;24.50;65.43
51123;BME280;37162;41.724;13.346;2023-08-06T12:47:22;96033.72;;;24.48;65.40
51123;BME280;37162;41.724;13.346;2023-08-06T12:49:47;96036.72;;;24.46;65.50
51123;BME280;37162;41.724;13.346;2023-08-06T12:52:14;96032.41;;;24.45;65.65
51123;BME280;37162;41.724;13.346;2023-08-06T12:54:40;96023.44;;;24.45;65.75
51123;BME280;37162;41.724;13.346;2023-08-06T12:57:06;96028.19;;;24.39;65.68
51123;BME280;37162;41.724;13.346;2023-08-06T12:59:32;96018.19;;;24.35;65.65
51123;BME280;37162;41.724;13.346;2023-08-06T13:01:58;96025.94;;;24.41;65.82
51123;BME280;37162;41.724;13.346;2023-08-06T13:04:24;96028.66;;;24.41;65.64
51123;BME280;37162;41.724;13.346;2023-08-06T13:06:49;96027.38;;;24.39;65.86
51123;BME280;37162;41.724;13.346;2023-08-06T13:09:15;96028.47;;;24.38;66.06
51123;BME280;37162;41.724;13.346;2023-08-06T13:11:41;96018.75;;;24.32;66.24
51123;BME280;37162;41.724;13.346;2023-08-06T13:14:08;96022.50;;;24.36;66.04